Time,TemperatureF,DewpointF,PressureIn,WindDirection,WindDirectionDegrees,WindSpeedMPH,WindSpeedGustMPH,Humidity,HourlyPrecipIn,Conditions,Clouds,dailyrainin,SolarRadiationWatts/m^2,SoftwareType,DateUTC
2013-12-11 00:00:00,3.0,-99.9,-100.00,WNW,301,1.0,4.0,-999,-99.99,,,0.00,97.599998,,2013-12-11 07:00:00,
2013-12-11 00:52:00,3.0,-99.9,-100.00,WNW,301,1.0,4.0,-999,-99.99,,,0.00,97.599998,,2013-12-11 07:52:00,
2013-12-11 03:00:00,5.0,-99.9,-100.00,NNW,335,1.0,3.0,-999,-99.99,,,0.00,98.300003,,2013-12-11 10:00:00,
2013-12-11 03:53:00,5.0,-99.9,-100.00,NNW,335,1.0,3.0,-999,-99.99,,,0.00,98.300003,,2013-12-11 10:53:00,
2013-12-11 05:00:00,12.0,-99.9,-100.00,SE,138,0.0,2.0,-999,-99.99,,,0.00,98.400002,,2013-12-11 12:00:00,
2013-12-11 05:52:00,12.0,-99.9,-100.00,SE,138,0.0,2.0,-999,-99.99,,,0.00,98.400002,,2013-12-11 12:52:00,
2013-12-11 09:00:00,16.0,-99.9,-100.00,WSW,241,1.0,3.0,-999,-99.99,,,0.00,97.699997,,2013-12-11 16:00:00,
2013-12-11 09:53:00,16.0,-99.9,-100.00,WSW,241,1.0,3.0,-999,-99.99,,,0.00,97.699997,,2013-12-11 16:53:00,
2013-12-11 11:00:00,22.0,-99.9,-100.00,SSE,166,1.0,5.0,-999,-99.99,,,0.00,97.300003,,2013-12-11 18:00:00,
2013-12-11 11:52:00,22.0,-99.9,-100.00,SSE,166,1.0,5.0,-999,-99.99,,,0.00,97.300003,,2013-12-11 18:52:00,
2013-12-11 12:00:00,22.0,-99.9,-100.00,NW,307,2.0,4.0,-999,-99.99,,,0.00,97.099998,,2013-12-11 19:00:00,
2013-12-11 12:52:00,22.0,-99.9,-100.00,NW,307,2.0,4.0,-999,-99.99,,,0.00,97.099998,,2013-12-11 19:52:00,
2013-12-11 15:00:00,26.0,-99.9,-100.00,NW,319,3.0,6.0,-999,-99.99,,,0.00,96.400002,,2013-12-11 22:00:00,
2013-12-11 15:53:00,26.0,-99.9,-100.00,NW,319,3.0,6.0,-999,-99.99,,,0.00,96.400002,,2013-12-11 22:53:00,
2013-12-11 16:00:00,27.0,-99.9,-100.00,NW,324,3.0,6.0,-999,-99.99,,,0.00,96.199997,,2013-12-11 23:00:00,
2013-12-11 16:53:00,27.0,-99.9,-100.00,NW,324,3.0,6.0,-999,-99.99,,,0.00,96.199997,,2013-12-11 23:53:00,
2013-12-11 17:00:00,22.0,-99.9,-100.00,WNW,286,2.0,4.0,-999,-99.99,,,0.00,96.199997,,2013-12-12 00:00:00,
2013-12-11 17:52:00,22.0,-99.9,-100.00,WNW,286,2.0,4.0,-999,-99.99,,,0.00,96.199997,,2013-12-12 00:52:00,
2013-12-11 18:00:00,20.0,-99.9,-100.00,NNW,336,1.0,4.0,-999,-99.99,,,-99.99,96.099998,,2013-12-12 01:00:00,
2013-12-11 18:52:00,20.0,-99.9,-100.00,NNW,336,1.0,4.0,-999,-99.99,,,-99.99,96.099998,,2013-12-12 01:52:00,
2013-12-11 23:00:00,10.0,-99.9,-100.00,NW,318,1.0,3.0,-999,-99.99,,,0.00,97.000000,,2013-12-12 06:00:00,
2013-12-11 23:53:00,10.0,-99.9,-100.00,NW,318,1.0,3.0,-999,-99.99,,,0.00,97.000000,,2013-12-12 06:53:00,